createdAt,value
2023-03-17T00:00:35.124Z,21.8
2023-03-17T00:15:32.707Z,21.8
2023-03-17T00:30:32.547Z,21.7
2023-03-17T00:45:32.521Z,21.7
2023-03-17T01:00:32.503Z,21.6
2023-03-17T01:15:32.130Z,21.6
2023-03-17T01:30:32.825Z,21.6
2023-03-17T01:45:32.519Z,21.5
2023-03-17T02:00:33.034Z,21.5
2023-03-17T02:15:32.263Z,21.4
2023-03-17T02:30:32.615Z,21.4
2023-03-17T02:45:32.550Z,21.4
2023-03-17T03:00:33.076Z,21.3
2023-03-17T03:15:32.522Z,21.3
2023-03-17T03:30:33.021Z,21.3
2023-03-17T03:45:32.088Z,21.3
2023-03-17T04:00:33.308Z,21.2
2023-03-17T04:15:32.154Z,21.2
2023-03-17T04:30:32.922Z,21.2
2023-03-17T04:45:32.317Z,21.2
2023-03-17T05:00:32.332Z,21.2
2023-03-17T05:15:31.984Z,21.1
2023-03-17T05:30:32.641Z,21.1
2023-03-17T05:45:32.326Z,21.1
2023-03-17T06:00:37.374Z,21.0
2023-03-17T06:15:32.660Z,21
2023-03-17T06:30:35.758Z,21
2023-03-17T06:45:32.426Z,21
2023-03-17T07:00:37.680Z,21
2023-03-17T07:15:32.362Z,21.1
2023-03-17T07:30:39.362Z,21.2
2023-03-17T07:45:32.745Z,21.2
2023-03-17T08:00:37.127Z,21.2
2023-03-17T08:15:32.540Z,21.4
2023-03-17T08:30:35.541Z,21.5
2023-03-17T08:45:32.734Z,21.6
2023-03-17T09:00:33.894Z,21.7
2023-03-17T09:15:33.122Z,21.8
2023-03-17T09:30:33.796Z,21.8
2023-03-17T09:45:32.465Z,21.9
2023-03-17T10:00:35.512Z,22.0
2023-03-17T10:15:33.426Z,22.1
2023-03-17T10:30:34.494Z,22.1
2023-03-17T10:45:32.540Z,22.2
2023-03-17T11:00:36.554Z,22.2
2023-03-17T11:15:32.361Z,22.3
2023-03-17T11:30:33.520Z,22.3
2023-03-17T11:45:32.225Z,22.4
2023-03-17T12:00:33.716Z,22.4
2023-03-17T12:15:32.775Z,22.5
2023-03-17T12:30:33.718Z,22.5
2023-03-17T12:45:33.090Z,22.6
2023-03-17T13:00:37.037Z,22.7
2023-03-17T13:15:32.667Z,22.7
2023-03-17T13:30:36.704Z,22.8
2023-03-17T13:45:32.690Z,22.8
2023-03-17T14:00:35.719Z,22.8
2023-03-17T14:15:33.224Z,22.8
2023-03-17T14:30:35.813Z,22.9
2023-03-17T14:45:33.270Z,22.9
2023-03-17T15:00:37.130Z,22.9
2023-03-17T15:15:32.686Z,22.9
2023-03-17T15:30:46.428Z,22.9
2023-03-17T15:45:32.465Z,22.9
2023-03-17T16:00:34.512Z,22.9
2023-03-17T16:15:32.867Z,22.9
2023-03-17T16:30:38.463Z,22.9
2023-03-17T16:45:32.226Z,22.9
2023-03-17T17:00:39.182Z,22.8
2023-03-17T17:15:33.015Z,22.8
2023-03-17T17:30:34.456Z,22.8
2023-03-17T17:45:32.911Z,22.7
2023-03-17T18:00:37.667Z,22.7
2023-03-17T18:15:32.446Z,22.7
2023-03-17T18:30:33.699Z,22.6
2023-03-17T18:45:32.977Z,22.6
2023-03-17T19:00:36.671Z,22.4
2023-03-17T19:15:32.230Z,22.4
2023-03-17T19:30:33.849Z,22.2
2023-03-17T19:45:33.287Z,22.2
2023-03-17T20:00:33.042Z,22.1
2023-03-17T20:15:32.005Z,22.0
2023-03-17T20:30:33.667Z,21.9
2023-03-17T20:45:32.334Z,21.9
2023-03-17T21:00:35.206Z,21.8
2023-03-17T21:15:32.693Z,21.8
2023-03-17T21:30:35.550Z,21.7
2023-03-17T21:45:32.282Z,21.7
2023-03-17T22:00:39.350Z,21.6
2023-03-17T22:15:32.191Z,21.6
2023-03-17T22:30:32.813Z,21.5
2023-03-17T22:45:32.557Z,21.5
2023-03-17T23:00:33.350Z,21.5
2023-03-17T23:15:32.513Z,21.4
2023-03-17T23:30:33.129Z,21.4
2023-03-17T23:45:32.429Z,21.4
